createdAt,value
2022-12-23T00:02:11.045Z,4.08
2022-12-23T00:05:13.395Z,4.15
2022-12-23T00:08:15.764Z,4.21
2022-12-23T00:11:19.981Z,4.15
2022-12-23T00:14:40.804Z,4.10
2022-12-23T00:17:44.674Z,4.11
2022-12-23T00:20:46.821Z,4.06
2022-12-23T00:23:50.560Z,4.05
2022-12-23T00:26:53.008Z,4.02
2022-12-23T00:29:55.177Z,4.11
2022-12-23T00:32:57.326Z,4.08
2022-12-23T00:36:00.123Z,4.12
2022-12-23T00:39:21.204Z,4.05
2022-12-23T00:42:41.955Z,4.03
2022-12-23T00:45:44.280Z,3.99
2022-12-23T00:49:05.174Z,4.07
2022-12-23T00:52:09.839Z,4.09
2022-12-23T00:55:12.025Z,4.07
2022-12-23T00:58:15.744Z,4.14
2022-12-23T01:01:36.641Z,4.18
2022-12-23T01:04:57.751Z,4.00
2022-12-23T01:07:59.903Z,3.98
2022-12-23T01:11:08.527Z,3.91
2022-12-23T01:14:11.623Z,3.90
2022-12-23T01:17:13.916Z,3.93
2022-12-23T01:20:16.247Z,4.01
2022-12-23T01:23:18.433Z,4.06
2022-12-23T01:26:20.650Z,4.04
2022-12-23T01:29:22.970Z,4.00
2022-12-23T01:32:25.131Z,4.04
2022-12-23T01:35:27.253Z,4.09
2022-12-23T01:38:30.025Z,4.06
2022-12-23T01:41:51.995Z,4.10
2022-12-23T01:45:01.524Z,3.91
2022-12-23T01:48:10.134Z,3.87
2022-12-23T01:51:16.810Z,4.00
2022-12-23T01:54:18.975Z,4.07
2022-12-23T01:57:21.523Z,4.10
2022-12-23T02:00:42.306Z,4.10
2022-12-23T02:03:45.977Z,4.15
2022-12-23T02:07:08.464Z,4.18
2022-12-23T02:10:10.976Z,4.10
2022-12-23T02:14:08.055Z,4.00
2022-12-23T02:17:17.646Z,3.99
2022-12-23T02:20:38.425Z,3.93
2022-12-23T02:24:00.267Z,3.96
2022-12-23T02:27:09.599Z,4.06
2022-12-23T02:30:26.998Z,4.02
2022-12-23T02:33:48.106Z,4.14
2022-12-23T02:36:50.220Z,4.12
2022-12-23T02:40:05.371Z,3.94
2022-12-23T02:43:16.493Z,4.08
2022-12-23T02:46:32.183Z,3.96
2022-12-23T02:49:38.847Z,4.04
2022-12-23T02:52:42.106Z,3.92
2022-12-23T02:55:45.772Z,3.93
2022-12-23T02:58:53.691Z,4.07
2022-12-23T03:01:56.325Z,4.00
2022-12-23T03:05:00.894Z,3.91
2022-12-23T03:08:06.537Z,3.67
2022-12-23T03:11:11.764Z,3.82
2022-12-23T03:14:59.290Z,3.83
2022-12-23T03:18:11.529Z,3.80
2022-12-23T03:21:25.008Z,3.94
2022-12-23T03:24:42.677Z,3.82
2022-12-23T03:28:08.484Z,3.96
2022-12-23T03:31:15.070Z,3.83
2022-12-23T03:34:20.823Z,3.69
2022-12-23T03:37:24.270Z,3.52
2022-12-23T03:40:30.142Z,3.41
2022-12-23T03:43:50.174Z,3.41
2022-12-23T03:46:57.877Z,3.43
2022-12-23T03:50:06.349Z,3.50
2022-12-23T03:53:29.186Z,3.40
2022-12-23T03:56:35.974Z,3.51
2022-12-23T03:59:44.072Z,3.37
2022-12-23T04:02:56.753Z,3.32
2022-12-23T04:06:00.146Z,3.46
2022-12-23T04:09:03.241Z,3.53
2022-12-23T04:12:05.745Z,3.48
2022-12-23T04:15:12.807Z,3.65
2022-12-23T04:18:16.451Z,3.61
2022-12-23T04:21:18.674Z,3.33
2022-12-23T04:24:20.863Z,3.29
2022-12-23T04:27:23.002Z,3.27
2022-12-23T04:30:29.773Z,3.30
2022-12-23T04:33:35.974Z,3.24
2022-12-23T04:36:38.153Z,3.24
2022-12-23T04:39:40.323Z,3.13
2022-12-23T04:42:42.560Z,3.14
2022-12-23T04:45:44.715Z,3.08
2022-12-23T04:48:47.071Z,3.05
2022-12-23T04:51:49.233Z,3.07
2022-12-23T04:54:51.458Z,2.93
2022-12-23T04:57:55.173Z,2.92
2022-12-23T05:01:08.902Z,3.03
2022-12-23T05:04:11.629Z,2.88
2022-12-23T05:07:13.850Z,2.91
2022-12-23T05:10:16.267Z,2.94
2022-12-23T05:13:18.498Z,2.92
2022-12-23T05:16:20.807Z,2.81
2022-12-23T05:19:23.054Z,2.82
2022-12-23T05:22:25.239Z,2.82
2022-12-23T05:25:27.461Z,2.91
2022-12-23T05:28:29.907Z,2.88
2022-12-23T05:31:32.303Z,2.85
2022-12-23T05:34:34.518Z,2.79
2022-12-23T05:37:36.727Z,2.73
2022-12-23T05:40:38.917Z,2.79
2022-12-23T05:43:41.354Z,2.81
2022-12-23T05:46:43.628Z,2.77
2022-12-23T05:49:45.872Z,2.83
2022-12-23T05:52:48.025Z,2.78
2022-12-23T05:55:50.410Z,2.88
2022-12-23T05:58:52.649Z,2.86
2022-12-23T06:01:54.937Z,2.85
2022-12-23T06:04:57.453Z,2.83
2022-12-23T06:07:59.657Z,2.92
2022-12-23T06:11:04.993Z,2.91
2022-12-23T06:14:07.516Z,2.92
2022-12-23T06:17:09.666Z,2.94
2022-12-23T06:20:19.684Z,2.89
2022-12-23T06:23:22.759Z,2.92
2022-12-23T06:26:24.958Z,2.95
2022-12-23T06:29:27.204Z,2.84
2022-12-23T06:32:34.440Z,2.85
2022-12-23T06:35:40.047Z,2.67
2022-12-23T06:38:42.205Z,2.63
2022-12-23T06:41:44.541Z,2.71
2022-12-23T06:44:46.852Z,2.73
2022-12-23T06:47:49.061Z,2.80
2022-12-23T06:50:51.224Z,2.87
2022-12-23T06:53:54.267Z,2.81
2022-12-23T06:56:56.567Z,2.79
2022-12-23T06:59:58.727Z,2.83
2022-12-23T07:03:01.133Z,2.88
2022-12-23T07:06:03.671Z,2.85
2022-12-23T07:09:07.298Z,2.79
2022-12-23T07:12:09.445Z,2.89
2022-12-23T07:15:11.723Z,2.87
2022-12-23T07:18:13.884Z,2.75
2022-12-23T07:21:26.478Z,2.90
2022-12-23T07:24:31.048Z,2.76
2022-12-23T07:27:33.256Z,2.83
2022-12-23T07:30:36.230Z,2.73
2022-12-23T07:33:38.459Z,2.79
2022-12-23T07:36:40.648Z,2.74
2022-12-23T07:39:43.497Z,2.82
2022-12-23T07:42:49.196Z,2.93
2022-12-23T07:45:57.427Z,2.91
2022-12-23T07:49:01.982Z,2.89
2022-12-23T07:52:04.358Z,2.88
2022-12-23T07:55:06.747Z,2.83
2022-12-23T07:58:08.900Z,3.15
2022-12-23T08:01:11.109Z,3.10
2022-12-23T08:04:13.331Z,3.13
2022-12-23T08:07:15.471Z,3.13
2022-12-23T08:10:17.811Z,3.14
2022-12-23T08:13:19.973Z,3.12
2022-12-23T08:16:22.241Z,3.16
2022-12-23T08:19:24.439Z,3.02
2022-12-23T08:22:26.620Z,3.15
2022-12-23T08:25:28.807Z,3.19
2022-12-23T08:28:31.803Z,3.23
2022-12-23T08:31:34.046Z,3.27
2022-12-23T08:34:36.785Z,3.26
2022-12-23T08:37:38.958Z,3.43
2022-12-23T08:40:41.359Z,3.47
2022-12-23T08:43:44.478Z,3.39
2022-12-23T08:46:46.989Z,3.37
2022-12-23T08:49:49.324Z,3.36
2022-12-23T08:52:51.543Z,3.21
2022-12-23T08:55:54.405Z,3.18
2022-12-23T08:58:57.099Z,3.10
2022-12-23T09:02:02.116Z,3.02
2022-12-23T09:05:04.697Z,3.05
2022-12-23T09:08:06.990Z,3.15
2022-12-23T09:11:11.132Z,3.35
2022-12-23T09:14:13.712Z,3.22
2022-12-23T09:17:17.664Z,3.26
2022-12-23T09:20:19.917Z,3.37
2022-12-23T09:23:22.397Z,3.43
2022-12-23T09:26:27.210Z,3.45
2022-12-23T09:29:29.445Z,3.47
2022-12-23T09:32:31.969Z,3.42
2022-12-23T09:35:34.204Z,3.46
2022-12-23T09:38:36.793Z,3.42
2022-12-23T09:41:52.586Z,3.51
2022-12-23T09:45:05.568Z,3.31
2022-12-23T09:48:14.321Z,3.42
2022-12-23T09:51:19.783Z,3.46
2022-12-23T09:54:28.921Z,3.47
2022-12-23T09:57:42.422Z,3.63
2022-12-23T10:00:51.659Z,3.65
2022-12-23T10:04:24.930Z,3.68
2022-12-23T10:07:36.268Z,3.72
2022-12-23T10:10:45.234Z,3.51
2022-12-23T10:13:53.191Z,3.75
2022-12-23T10:17:05.428Z,3.66
2022-12-23T10:20:15.811Z,3.80
2022-12-23T10:23:24.991Z,3.80
2022-12-23T10:26:39.796Z,3.60
2022-12-23T10:29:42.529Z,3.58
2022-12-23T10:33:14.099Z,3.50
2022-12-23T10:36:48.593Z,3.49
2022-12-23T10:40:20.942Z,3.66
2022-12-23T10:43:40.252Z,3.67
2022-12-23T10:47:03.037Z,3.66
2022-12-23T10:50:29.881Z,3.73
2022-12-23T10:53:48.280Z,3.70
2022-12-23T10:56:50.551Z,3.83
2022-12-23T10:59:52.786Z,3.82
2022-12-23T11:03:30.124Z,3.73
2022-12-23T11:06:37.423Z,3.61
2022-12-23T11:09:51.050Z,3.51
2022-12-23T11:12:54.234Z,3.65
2022-12-23T11:16:13.960Z,3.57
2022-12-23T11:19:16.754Z,3.48
2022-12-23T11:22:25.659Z,3.55
2022-12-23T11:25:43.595Z,3.62
2022-12-23T11:28:56.314Z,3.69
2022-12-23T11:31:59.140Z,3.67
2022-12-23T11:35:01.394Z,3.69
2022-12-23T11:38:03.855Z,3.59
2022-12-23T11:41:06.194Z,3.62
2022-12-23T11:44:31.005Z,3.67
2022-12-23T11:47:37.590Z,3.62
2022-12-23T11:50:40.792Z,3.64
2022-12-23T11:53:44.074Z,3.62
2022-12-23T11:56:49.552Z,3.60
2022-12-23T11:59:57.436Z,3.67
2022-12-23T12:03:00.890Z,3.61
2022-12-23T12:06:05.173Z,3.65
2022-12-23T12:09:07.429Z,3.59
2022-12-23T12:12:16.533Z,3.66
2022-12-23T12:16:01.977Z,3.68
2022-12-23T12:19:19.586Z,3.84
2022-12-23T12:22:34.439Z,3.77
2022-12-23T12:25:54.274Z,3.81
2022-12-23T12:29:02.629Z,3.86
2022-12-23T12:32:11.625Z,3.90
2022-12-23T12:35:21.661Z,3.89
2022-12-23T12:38:24.048Z,3.99
2022-12-23T12:41:34.421Z,3.97
2022-12-23T12:44:39.331Z,4.01
2022-12-23T12:48:00.122Z,4.00
2022-12-23T12:51:16.742Z,4.06
2022-12-23T12:54:37.166Z,4.11
2022-12-23T12:57:40.305Z,4.06
2022-12-23T13:00:53.964Z,4.08
2022-12-23T13:04:19.647Z,4.02
2022-12-23T13:07:34.080Z,4.02
2022-12-23T13:11:15.387Z,3.92
2022-12-23T13:14:17.482Z,4.01
2022-12-23T13:17:25.996Z,3.91
2022-12-23T13:20:45.216Z,4.02
2022-12-23T13:24:03.597Z,4.09
2022-12-23T13:27:35.031Z,4.09
2022-12-23T13:30:46.803Z,3.95
2022-12-23T13:33:56.861Z,3.98
2022-12-23T13:37:33.156Z,4.12
2022-12-23T13:40:55.540Z,4.10
2022-12-23T13:44:05.878Z,4.19
2022-12-23T13:47:29.740Z,4.13
2022-12-23T13:50:41.263Z,4.12
2022-12-23T13:53:49.348Z,4.15
2022-12-23T13:57:17.615Z,4.15
2022-12-23T14:00:19.770Z,4.12
2022-12-23T14:03:26.428Z,4.17
2022-12-23T14:06:28.538Z,4.16
2022-12-23T14:09:35.583Z,4.17
2022-12-23T14:12:39.920Z,4.23
2022-12-23T14:15:45.284Z,4.32
2022-12-23T14:18:56.576Z,4.27
2022-12-23T14:22:23.080Z,4.14
2022-12-23T14:25:46.698Z,4.20
2022-12-23T14:28:57.528Z,4.22
2022-12-23T14:31:59.769Z,4.20
2022-12-23T14:35:04.988Z,4.21
2022-12-23T14:38:10.203Z,4.27
2022-12-23T14:41:40.414Z,4.20
2022-12-23T14:44:50.270Z,4.17
2022-12-23T14:47:52.483Z,4.18
2022-12-23T14:51:00.878Z,4.19
2022-12-23T14:54:03.014Z,4.20
2022-12-23T14:57:08.566Z,4.15
2022-12-23T15:00:11.616Z,4.14
2022-12-23T15:03:13.950Z,4.07
2022-12-23T15:06:29.500Z,4.13
2022-12-23T15:09:38.916Z,4.11
2022-12-23T15:12:43.373Z,4.17
2022-12-23T15:15:58.952Z,4.22
2022-12-23T15:19:17.400Z,4.13
2022-12-23T15:22:24.146Z,4.11
2022-12-23T15:25:33.781Z,4.41
2022-12-23T15:28:40.143Z,4.28
2022-12-23T15:31:43.272Z,4.18
2022-12-23T15:34:47.781Z,4.22
2022-12-23T15:37:51.032Z,4.24
2022-12-23T15:41:01.725Z,4.29
2022-12-23T15:44:04.026Z,4.20
2022-12-23T15:47:25.702Z,4.24
2022-12-23T15:50:28.533Z,4.22
2022-12-23T15:53:37.211Z,4.21
2022-12-23T15:56:40.846Z,4.31
2022-12-23T15:59:44.412Z,4.24
2022-12-23T16:03:00.449Z,4.22
2022-12-23T16:06:24.344Z,4.48
2022-12-23T16:09:36.031Z,4.11
2022-12-23T16:12:39.072Z,4.00
2022-12-23T16:15:41.218Z,4.24
2022-12-23T16:18:47.169Z,4.20
2022-12-23T16:21:50.137Z,4.22
2022-12-23T16:25:20.544Z,4.23
2022-12-23T16:28:27.074Z,4.19
2022-12-23T16:31:29.321Z,4.33
2022-12-23T16:34:32.001Z,4.07
2022-12-23T16:37:34.160Z,3.97
2022-12-23T16:40:36.415Z,4.14
2022-12-23T16:43:38.712Z,4.09
2022-12-23T16:46:47.278Z,3.97
2022-12-23T16:49:49.494Z,4.08
2022-12-23T16:52:51.675Z,4.02
2022-12-23T16:56:00.223Z,3.96
2022-12-23T16:59:03.906Z,3.96
2022-12-23T17:02:17.860Z,3.88
2022-12-23T17:05:21.485Z,3.75
2022-12-23T17:08:23.767Z,3.81
2022-12-23T17:11:31.117Z,3.79
2022-12-23T17:14:33.329Z,3.74
2022-12-23T17:17:35.932Z,3.81
2022-12-23T17:20:38.374Z,3.86
2022-12-23T17:23:40.552Z,3.83
2022-12-23T17:26:43.894Z,3.82
2022-12-23T17:29:46.485Z,3.77
2022-12-23T17:32:55.593Z,3.77
2022-12-23T17:35:58.082Z,3.93
2022-12-23T17:39:00.331Z,3.94
2022-12-23T17:42:03.063Z,3.72
2022-12-23T17:45:06.065Z,4.09
2022-12-23T17:48:16.327Z,3.77
2022-12-23T17:51:23.170Z,3.79
2022-12-23T17:54:25.443Z,3.83
2022-12-23T17:57:27.612Z,3.68
2022-12-23T18:00:34.402Z,3.65
2022-12-23T18:03:36.882Z,3.50
2022-12-23T18:06:39.030Z,3.33
2022-12-23T18:09:41.208Z,3.21
2022-12-23T18:12:46.384Z,3.10
2022-12-23T18:15:48.805Z,3.24
2022-12-23T18:18:51.879Z,3.10
2022-12-23T18:21:54.057Z,2.88
2022-12-23T18:24:59.359Z,2.66
2022-12-23T18:28:02.042Z,2.75
2022-12-23T18:31:04.368Z,3.07
2022-12-23T18:34:06.610Z,2.94
2022-12-23T18:37:09.293Z,3.06
2022-12-23T18:40:11.819Z,2.91
2022-12-23T18:43:21.980Z,3.01
2022-12-23T18:46:24.847Z,2.86
2022-12-23T18:49:27.148Z,2.69
2022-12-23T18:52:29.655Z,2.57
2022-12-23T18:55:32.031Z,2.81
2022-12-23T18:58:34.254Z,2.90
2022-12-23T19:01:37.036Z,3.16
2022-12-23T19:04:39.713Z,3.05
2022-12-23T19:07:42.508Z,3.09
2022-12-23T19:10:47.586Z,2.87
2022-12-23T19:13:49.736Z,2.86
2022-12-23T19:16:52.882Z,2.90
2022-12-23T19:19:55.213Z,2.66
2022-12-23T19:22:57.439Z,2.54
2022-12-23T19:25:59.625Z,2.45
2022-12-23T19:29:01.813Z,2.41
2022-12-23T19:32:04.328Z,2.64
2022-12-23T19:35:06.813Z,2.64
2022-12-23T19:38:09.095Z,2.63
2022-12-23T19:41:11.321Z,2.65
2022-12-23T19:44:14.210Z,2.57
2022-12-23T19:47:16.462Z,2.57
2022-12-23T19:50:19.756Z,2.46
2022-12-23T19:53:22.006Z,2.62
2022-12-23T19:56:25.163Z,2.58
2022-12-23T19:59:27.459Z,2.56
2022-12-23T20:02:29.879Z,2.61
2022-12-23T20:05:32.150Z,2.63
2022-12-23T20:08:35.509Z,2.63
2022-12-23T20:11:43.044Z,2.65
2022-12-23T20:14:45.373Z,2.82
2022-12-23T20:17:47.731Z,2.73
2022-12-23T20:20:52.978Z,3.00
2022-12-23T20:23:55.317Z,2.95
2022-12-23T20:26:59.258Z,2.99
2022-12-23T20:30:01.703Z,3.09
2022-12-23T20:33:03.985Z,3.03
2022-12-23T20:36:07.319Z,2.94
2022-12-23T20:39:09.566Z,2.97
2022-12-23T20:42:11.796Z,2.89
2022-12-23T20:45:14.392Z,2.83
2022-12-23T20:48:18.134Z,2.86
2022-12-23T20:51:25.781Z,2.92
2022-12-23T20:54:32.725Z,3.03
2022-12-23T20:57:36.027Z,3.04
2022-12-23T21:00:38.214Z,2.83
2022-12-23T21:03:41.212Z,2.76
2022-12-23T21:06:44.075Z,2.78
2022-12-23T21:09:46.220Z,2.77
2022-12-23T21:12:48.388Z,2.99
2022-12-23T21:15:50.695Z,3.01
2022-12-23T21:18:53.315Z,3.04
2022-12-23T21:21:55.589Z,3.22
2022-12-23T21:24:57.749Z,2.99
2022-12-23T21:28:00.138Z,3.05
2022-12-23T21:31:02.367Z,2.92
2022-12-23T21:34:04.996Z,2.93
2022-12-23T21:37:07.185Z,3.03
2022-12-23T21:40:10.155Z,3.04
2022-12-23T21:43:12.374Z,3.05
2022-12-23T21:46:17.240Z,3.20
2022-12-23T21:49:20.383Z,3.25
2022-12-23T21:52:22.542Z,3.27
2022-12-23T21:55:24.751Z,3.37
2022-12-23T21:58:26.932Z,3.29
2022-12-23T22:01:29.262Z,3.24
2022-12-23T22:04:31.459Z,3.26
2022-12-23T22:07:33.620Z,3.31
2022-12-23T22:10:38.322Z,3.41
2022-12-23T22:13:41.024Z,3.36
2022-12-23T22:16:43.360Z,3.35
2022-12-23T22:19:45.584Z,3.36
2022-12-23T22:22:47.725Z,3.30
2022-12-23T22:25:53.991Z,3.30
2022-12-23T22:28:58.382Z,3.19
2022-12-23T22:32:00.633Z,3.11
2022-12-23T22:35:02.840Z,3.16
2022-12-23T22:38:05.060Z,3.15
2022-12-23T22:41:07.944Z,3.18
2022-12-23T22:44:11.890Z,3.34
2022-12-23T22:47:14.205Z,3.32
2022-12-23T22:50:16.420Z,3.32
2022-12-23T22:53:18.636Z,3.42
2022-12-23T22:56:21.751Z,3.53
2022-12-23T22:59:25.339Z,3.66
2022-12-23T23:02:27.695Z,3.81
2022-12-23T23:05:29.954Z,3.78
2022-12-23T23:08:32.803Z,3.78
2022-12-23T23:11:35.262Z,3.73
2022-12-23T23:14:52.618Z,3.74
2022-12-23T23:17:56.214Z,3.80
2022-12-23T23:20:58.639Z,3.75
2022-12-23T23:24:00.883Z,3.72
2022-12-23T23:27:03.076Z,3.77
2022-12-23T23:30:05.642Z,3.62
2022-12-23T23:33:08.765Z,3.77
2022-12-23T23:36:11.330Z,3.88
2022-12-23T23:39:13.837Z,3.72
2022-12-23T23:42:17.841Z,3.67
2022-12-23T23:45:20.279Z,3.74
2022-12-23T23:48:22.487Z,3.75
2022-12-23T23:51:24.746Z,3.59
2022-12-23T23:54:26.991Z,3.75
2022-12-23T23:57:29.260Z,3.82
